sensor_id;sensor_type;location;lat;lon;timestamp;temperature;humidity
4828;DHT22;2428;48.732;9.148;2023-12-22T00:01:08;6.40;99.90
4828;DHT22;2428;48.732;9.148;2023-12-22T00:03:34;6.40;99.90
4828;DHT22;2428;48.732;9.148;2023-12-22T00:05:59;6.40;99.90
4828;DHT22;2428;48.732;9.148;2023-12-22T00:08:25;6.40;99.90
4828;DHT22;2428;48.732;9.148;2023-12-22T00:10:50;6.50;99.90
4828;DHT22;2428;48.732;9.148;2023-12-22T00:13:16;6.70;99.90
4828;DHT22;2428;48.732;9.148;2023-12-22T00:15:41;6.80;99.90
4828;DHT22;2428;48.732;9.148;2023-12-22T00:18:10;6.90;99.90
4828;DHT22;2428;48.732;9.148;2023-12-22T00:20:36;7.00;99.90
4828;DHT22;2428;48.732;9.148;2023-12-22T00:23:01;7.10;99.90
4828;DHT22;2428;48.732;9.148;2023-12-22T00:25:27;7.00;99.90
4828;DHT22;2428;48.732;9.148;2023-12-22T00:27:53;7.10;99.90
4828;DHT22;2428;48.732;9.148;2023-12-22T00:30:18;7.10;99.90
4828;DHT22;2428;48.732;9.148;2023-12-22T00:32:44;7.10;99.90
4828;DHT22;2428;48.732;9.148;2023-12-22T00:35:10;7.10;99.90
4828;DHT22;2428;48.732;9.148;2023-12-22T00:37:35;7.10;99.90
4828;DHT22;2428;48.732;9.148;2023-12-22T00:40:01;7.20;99.90
4828;DHT22;2428;48.732;9.148;2023-12-22T00:42:29;7.20;99.90
4828;DHT22;2428;48.732;9.148;2023-12-22T00:44:55;7.20;99.90
4828;DHT22;2428;48.732;9.148;2023-12-22T00:47:20;7.20;99.90
4828;DHT22;2428;48.732;9.148;2023-12-22T00:49:46;7.20;99.90
4828;DHT22;2428;48.732;9.148;2023-12-22T00:52:11;7.20;99.90
4828;DHT22;2428;48.732;9.148;2023-12-22T00:54:37;7.20;99.90
4828;DHT22;2428;48.732;9.148;2023-12-22T00:57:03;7.10;99.90
4828;DHT22;2428;48.732;9.148;2023-12-22T00:59:29;7.20;99.90
4828;DHT22;2428;48.732;9.148;2023-12-22T01:01:55;7.10;99.90
4828;DHT22;2428;48.732;9.148;2023-12-22T01:04:20;7.10;99.90
4828;DHT22;2428;48.732;9.148;2023-12-22T01:06:46;7.10;99.90
4828;DHT22;2428;48.732;9.148;2023-12-22T01:09:11;7.10;99.90
4828;DHT22;2428;48.732;9.148;2023-12-22T01:11:37;7.10;99.90
4828;DHT22;2428;48.732;9.148;2023-12-22T01:14:02;7.10;99.90
4828;DHT22;2428;48.732;9.148;2023-12-22T01:16:28;7.10;99.90
4828;DHT22;2428;48.732;9.148;2023-12-22T01:18:54;7.00;99.90
4828;DHT22;2428;48.732;9.148;2023-12-22T01:21:19;7.00;99.90
4828;DHT22;2428;48.732;9.148;2023-12-22T01:23:45;7.00;99.90
4828;DHT22;2428;48.732;9.148;2023-12-22T01:26:10;7.00;99.90
4828;DHT22;2428;48.732;9.148;2023-12-22T01:28:36;7.00;99.90
4828;DHT22;2428;48.732;9.148;2023-12-22T01:31:02;7.00;99.90
4828;DHT22;2428;48.732;9.148;2023-12-22T01:33:28;7.00;99.90
4828;DHT22;2428;48.732;9.148;2023-12-22T01:35:55;7.00;99.90
4828;DHT22;2428;48.732;9.148;2023-12-22T01:38:20;7.00;99.90
4828;DHT22;2428;48.732;9.148;2023-12-22T01:40:46;7.00;99.90
4828;DHT22;2428;48.732;9.148;2023-12-22T01:43:12;7.00;99.90
4828;DHT22;2428;48.732;9.148;2023-12-22T01:45:38;7.00;99.90
4828;DHT22;2428;48.732;9.148;2023-12-22T01:48:04;7.00;99.90
4828;DHT22;2428;48.732;9.148;2023-12-22T01:50:30;7.00;99.90
4828;DHT22;2428;48.732;9.148;2023-12-22T01:52:56;7.00;99.90
4828;DHT22;2428;48.732;9.148;2023-12-22T01:55:22;7.00;99.90
4828;DHT22;2428;48.732;9.148;2023-12-22T01:57:49;7.00;99.90
4828;DHT22;2428;48.732;9.148;2023-12-22T02:00:14;7.00;99.90
4828;DHT22;2428;48.732;9.148;2023-12-22T02:02:41;7.00;99.90
4828;DHT22;2428;48.732;9.148;2023-12-22T02:05:09;7.00;99.90
4828;DHT22;2428;48.732;9.148;2023-12-22T02:07:38;7.00;99.90
4828;DHT22;2428;48.732;9.148;2023-12-22T02:10:08;6.90;99.90
4828;DHT22;2428;48.732;9.148;2023-12-22T02:12:35;7.00;99.90
4828;DHT22;2428;48.732;9.148;2023-12-22T02:15:00;7.00;99.90
4828;DHT22;2428;48.732;9.148;2023-12-22T02:17:32;7.00;99.90
4828;DHT22;2428;48.732;9.148;2023-12-22T02:19:58;7.00;99.90
4828;DHT22;2428;48.732;9.148;2023-12-22T02:22:24;7.00;99.90
4828;DHT22;2428;48.732;9.148;2023-12-22T02:24:50;6.90;99.90
4828;DHT22;2428;48.732;9.148;2023-12-22T02:27:33;6.90;99.90
4828;DHT22;2428;48.732;9.148;2023-12-22T02:30:09;7.00;99.90
4828;DHT22;2428;48.732;9.148;2023-12-22T02:32:40;7.00;99.90
4828;DHT22;2428;48.732;9.148;2023-12-22T02:35:10;6.90;99.90
4828;DHT22;2428;48.732;9.148;2023-12-22T02:37:37;6.90;99.90
4828;DHT22;2428;48.732;9.148;2023-12-22T02:40:04;6.90;99.90
4828;DHT22;2428;48.732;9.148;2023-12-22T02:42:32;6.90;99.90
4828;DHT22;2428;48.732;9.148;2023-12-22T02:44:59;6.90;99.90
4828;DHT22;2428;48.732;9.148;2023-12-22T02:47:25;6.90;99.90
4828;DHT22;2428;48.732;9.148;2023-12-22T02:49:53;7.00;99.90
4828;DHT22;2428;48.732;9.148;2023-12-22T02:52:19;6.90;99.90
4828;DHT22;2428;48.732;9.148;2023-12-22T02:54:44;7.00;99.90
4828;DHT22;2428;48.732;9.148;2023-12-22T02:57:12;7.00;99.90
4828;DHT22;2428;48.732;9.148;2023-12-22T02:59:38;7.00;99.90
4828;DHT22;2428;48.732;9.148;2023-12-22T03:02:04;7.10;99.90
4828;DHT22;2428;48.732;9.148;2023-12-22T03:04:29;7.00;99.90
4828;DHT22;2428;48.732;9.148;2023-12-22T03:06:55;7.10;99.90
4828;DHT22;2428;48.732;9.148;2023-12-22T03:09:21;7.10;99.90
4828;DHT22;2428;48.732;9.148;2023-12-22T03:11:47;7.10;99.90
4828;DHT22;2428;48.732;9.148;2023-12-22T03:14:13;7.10;99.90
4828;DHT22;2428;48.732;9.148;2023-12-22T03:16:40;7.20;99.90
4828;DHT22;2428;48.732;9.148;2023-12-22T03:19:07;7.10;99.90
4828;DHT22;2428;48.732;9.148;2023-12-22T03:21:32;7.10;99.90
4828;DHT22;2428;48.732;9.148;2023-12-22T03:23:58;7.20;99.90
4828;DHT22;2428;48.732;9.148;2023-12-22T03:26:26;7.20;99.90
4828;DHT22;2428;48.732;9.148;2023-12-22T03:28:51;7.20;99.90
4828;DHT22;2428;48.732;9.148;2023-12-22T03:31:17;7.20;99.90
4828;DHT22;2428;48.732;9.148;2023-12-22T03:33:42;7.20;99.90
4828;DHT22;2428;48.732;9.148;2023-12-22T03:36:08;7.10;99.90
4828;DHT22;2428;48.732;9.148;2023-12-22T03:38:34;7.10;99.90
4828;DHT22;2428;48.732;9.148;2023-12-22T03:40:59;7.10;99.90
4828;DHT22;2428;48.732;9.148;2023-12-22T03:43:25;7.10;99.90
4828;DHT22;2428;48.732;9.148;2023-12-22T03:45:50;7.10;99.90
4828;DHT22;2428;48.732;9.148;2023-12-22T03:48:16;7.10;99.90
4828;DHT22;2428;48.732;9.148;2023-12-22T03:50:41;7.10;99.90
4828;DHT22;2428;48.732;9.148;2023-12-22T03:53:07;7.10;99.90
4828;DHT22;2428;48.732;9.148;2023-12-22T03:55:32;7.10;99.90
4828;DHT22;2428;48.732;9.148;2023-12-22T03:57:58;7.10;99.90
4828;DHT22;2428;48.732;9.148;2023-12-22T04:00:23;7.10;99.90
4828;DHT22;2428;48.732;9.148;2023-12-22T04:02:49;7.00;99.90
4828;DHT22;2428;48.732;9.148;2023-12-22T04:05:15;7.00;99.90
4828;DHT22;2428;48.732;9.148;2023-12-22T04:07:40;6.90;99.90
4828;DHT22;2428;48.732;9.148;2023-12-22T04:10:06;6.90;99.90
4828;DHT22;2428;48.732;9.148;2023-12-22T04:12:32;6.90;99.90
4828;DHT22;2428;48.732;9.148;2023-12-22T04:14:57;6.80;99.90
4828;DHT22;2428;48.732;9.148;2023-12-22T04:17:23;6.70;99.90
4828;DHT22;2428;48.732;9.148;2023-12-22T04:19:49;6.70;99.90
4828;DHT22;2428;48.732;9.148;2023-12-22T04:22:14;6.60;99.90
4828;DHT22;2428;48.732;9.148;2023-12-22T04:24:40;6.60;99.90
4828;DHT22;2428;48.732;9.148;2023-12-22T04:27:06;6.50;99.90
4828;DHT22;2428;48.732;9.148;2023-12-22T04:29:31;6.50;99.90
4828;DHT22;2428;48.732;9.148;2023-12-22T04:31:57;6.50;99.90
4828;DHT22;2428;48.732;9.148;2023-12-22T04:34:23;6.50;99.90
4828;DHT22;2428;48.732;9.148;2023-12-22T04:36:49;6.50;99.90
4828;DHT22;2428;48.732;9.148;2023-12-22T04:39:18;6.60;99.90
4828;DHT22;2428;48.732;9.148;2023-12-22T04:41:43;6.60;99.90
4828;DHT22;2428;48.732;9.148;2023-12-22T04:44:09;6.60;99.90
4828;DHT22;2428;48.732;9.148;2023-12-22T04:46:34;6.60;99.90
4828;DHT22;2428;48.732;9.148;2023-12-22T04:49:00;6.60;99.90
4828;DHT22;2428;48.732;9.148;2023-12-22T04:51:27;6.60;99.90
4828;DHT22;2428;48.732;9.148;2023-12-22T04:53:52;6.60;99.90
4828;DHT22;2428;48.732;9.148;2023-12-22T04:56:18;6.60;99.90
4828;DHT22;2428;48.732;9.148;2023-12-22T04:58:43;6.60;99.90
4828;DHT22;2428;48.732;9.148;2023-12-22T05:01:09;6.60;99.90
4828;DHT22;2428;48.732;9.148;2023-12-22T05:03:34;6.70;99.90
4828;DHT22;2428;48.732;9.148;2023-12-22T05:06:00;6.70;99.90
4828;DHT22;2428;48.732;9.148;2023-12-22T05:08:26;6.70;99.90
4828;DHT22;2428;48.732;9.148;2023-12-22T05:10:51;6.80;99.90
4828;DHT22;2428;48.732;9.148;2023-12-22T05:13:17;6.80;99.90
4828;DHT22;2428;48.732;9.148;2023-12-22T05:15:42;6.80;99.90
4828;DHT22;2428;48.732;9.148;2023-12-22T05:18:08;6.80;99.90
4828;DHT22;2428;48.732;9.148;2023-12-22T05:20:33;6.80;99.90
4828;DHT22;2428;48.732;9.148;2023-12-22T05:23:00;6.80;99.90
4828;DHT22;2428;48.732;9.148;2023-12-22T05:25:25;6.80;99.90
4828;DHT22;2428;48.732;9.148;2023-12-22T05:27:51;6.80;99.90
4828;DHT22;2428;48.732;9.148;2023-12-22T05:30:17;6.90;99.90
4828;DHT22;2428;48.732;9.148;2023-12-22T05:32:43;6.90;99.90
4828;DHT22;2428;48.732;9.148;2023-12-22T05:35:10;6.90;99.90
4828;DHT22;2428;48.732;9.148;2023-12-22T05:37:36;6.90;99.90
4828;DHT22;2428;48.732;9.148;2023-12-22T05:40:01;6.90;99.90
4828;DHT22;2428;48.732;9.148;2023-12-22T05:42:27;6.90;99.90
4828;DHT22;2428;48.732;9.148;2023-12-22T05:44:53;6.80;99.90
4828;DHT22;2428;48.732;9.148;2023-12-22T05:47:18;6.90;99.90
4828;DHT22;2428;48.732;9.148;2023-12-22T05:49:44;6.90;99.90
4828;DHT22;2428;48.732;9.148;2023-12-22T05:52:09;6.90;99.90
4828;DHT22;2428;48.732;9.148;2023-12-22T05:54:35;6.90;99.90
4828;DHT22;2428;48.732;9.148;2023-12-22T05:57:03;7.00;99.90
4828;DHT22;2428;48.732;9.148;2023-12-22T05:59:30;7.00;99.90
4828;DHT22;2428;48.732;9.148;2023-12-22T06:01:58;7.00;99.90
4828;DHT22;2428;48.732;9.148;2023-12-22T06:04:24;7.00;99.90
4828;DHT22;2428;48.732;9.148;2023-12-22T06:06:50;7.00;99.90
4828;DHT22;2428;48.732;9.148;2023-12-22T06:09:15;7.10;99.90
4828;DHT22;2428;48.732;9.148;2023-12-22T06:11:44;7.10;99.90
4828;DHT22;2428;48.732;9.148;2023-12-22T06:14:09;7.10;99.90
4828;DHT22;2428;48.732;9.148;2023-12-22T06:16:35;7.10;99.90
4828;DHT22;2428;48.732;9.148;2023-12-22T06:19:00;7.10;99.90
4828;DHT22;2428;48.732;9.148;2023-12-22T06:21:26;7.10;99.90
4828;DHT22;2428;48.732;9.148;2023-12-22T06:23:51;7.10;99.90
4828;DHT22;2428;48.732;9.148;2023-12-22T06:26:17;7.10;99.90
4828;DHT22;2428;48.732;9.148;2023-12-22T06:28:42;7.10;99.90
4828;DHT22;2428;48.732;9.148;2023-12-22T06:31:16;7.10;99.90
4828;DHT22;2428;48.732;9.148;2023-12-22T06:33:48;7.10;99.90
4828;DHT22;2428;48.732;9.148;2023-12-22T06:36:21;7.10;99.90
4828;DHT22;2428;48.732;9.148;2023-12-22T06:38:53;7.20;99.90
4828;DHT22;2428;48.732;9.148;2023-12-22T06:41:38;7.20;99.90
4828;DHT22;2428;48.732;9.148;2023-12-22T06:44:03;7.20;99.90
4828;DHT22;2428;48.732;9.148;2023-12-22T06:46:29;7.20;99.90
4828;DHT22;2428;48.732;9.148;2023-12-22T06:48:56;7.20;99.90
4828;DHT22;2428;48.732;9.148;2023-12-22T06:51:24;7.20;99.90
4828;DHT22;2428;48.732;9.148;2023-12-22T06:53:52;7.20;99.90
4828;DHT22;2428;48.732;9.148;2023-12-22T06:56:19;7.20;99.90
4828;DHT22;2428;48.732;9.148;2023-12-22T06:58:45;7.20;99.90
4828;DHT22;2428;48.732;9.148;2023-12-22T07:01:18;7.20;99.90
4828;DHT22;2428;48.732;9.148;2023-12-22T07:03:45;7.10;99.90
4828;DHT22;2428;48.732;9.148;2023-12-22T07:06:11;7.10;99.90
4828;DHT22;2428;48.732;9.148;2023-12-22T07:08:37;7.00;99.90
4828;DHT22;2428;48.732;9.148;2023-12-22T07:11:02;6.90;99.90
4828;DHT22;2428;48.732;9.148;2023-12-22T07:13:28;6.80;99.90
4828;DHT22;2428;48.732;9.148;2023-12-22T07:15:53;6.80;99.90
4828;DHT22;2428;48.732;9.148;2023-12-22T07:18:19;6.70;99.90
4828;DHT22;2428;48.732;9.148;2023-12-22T07:20:44;6.70;99.90
4828;DHT22;2428;48.732;9.148;2023-12-22T07:23:10;6.70;99.90
4828;DHT22;2428;48.732;9.148;2023-12-22T07:25:37;6.70;99.90
4828;DHT22;2428;48.732;9.148;2023-12-22T07:28:04;6.70;99.90
4828;DHT22;2428;48.732;9.148;2023-12-22T07:30:30;6.70;99.90
4828;DHT22;2428;48.732;9.148;2023-12-22T07:32:55;6.70;99.90
4828;DHT22;2428;48.732;9.148;2023-12-22T07:35:21;6.70;99.90
4828;DHT22;2428;48.732;9.148;2023-12-22T07:37:47;6.70;99.90
4828;DHT22;2428;48.732;9.148;2023-12-22T07:40:12;6.80;99.90
4828;DHT22;2428;48.732;9.148;2023-12-22T07:42:38;6.80;99.90
4828;DHT22;2428;48.732;9.148;2023-12-22T07:45:04;6.70;99.90
4828;DHT22;2428;48.732;9.148;2023-12-22T07:47:31;6.70;99.90
4828;DHT22;2428;48.732;9.148;2023-12-22T07:49:56;6.70;99.90
4828;DHT22;2428;48.732;9.148;2023-12-22T07:52:22;6.60;99.90
4828;DHT22;2428;48.732;9.148;2023-12-22T07:54:47;6.60;99.90
4828;DHT22;2428;48.732;9.148;2023-12-22T07:57:13;6.50;99.90
4828;DHT22;2428;48.732;9.148;2023-12-22T07:59:39;6.40;99.90
4828;DHT22;2428;48.732;9.148;2023-12-22T08:02:04;6.40;99.90
4828;DHT22;2428;48.732;9.148;2023-12-22T08:04:30;6.30;99.90
4828;DHT22;2428;48.732;9.148;2023-12-22T08:06:56;6.20;99.90
4828;DHT22;2428;48.732;9.148;2023-12-22T08:09:21;6.20;99.90
4828;DHT22;2428;48.732;9.148;2023-12-22T08:11:48;6.10;99.90
4828;DHT22;2428;48.732;9.148;2023-12-22T08:14:18;6.10;99.90
4828;DHT22;2428;48.732;9.148;2023-12-22T08:16:44;6.10;99.90
4828;DHT22;2428;48.732;9.148;2023-12-22T08:19:10;6.10;99.90
4828;DHT22;2428;48.732;9.148;2023-12-22T08:21:35;6.10;99.90
4828;DHT22;2428;48.732;9.148;2023-12-22T08:24:01;6.10;99.90
4828;DHT22;2428;48.732;9.148;2023-12-22T08:26:27;6.20;99.90
4828;DHT22;2428;48.732;9.148;2023-12-22T08:28:52;6.20;99.90
4828;DHT22;2428;48.732;9.148;2023-12-22T08:31:18;6.30;99.90
4828;DHT22;2428;48.732;9.148;2023-12-22T08:33:44;6.40;99.90
4828;DHT22;2428;48.732;9.148;2023-12-22T08:36:10;6.40;99.90
4828;DHT22;2428;48.732;9.148;2023-12-22T08:38:37;6.50;99.90
4828;DHT22;2428;48.732;9.148;2023-12-22T08:41:09;6.60;99.90
4828;DHT22;2428;48.732;9.148;2023-12-22T08:43:36;6.60;99.90
4828;DHT22;2428;48.732;9.148;2023-12-22T08:46:03;6.70;99.90
4828;DHT22;2428;48.732;9.148;2023-12-22T08:48:29;6.70;99.90
4828;DHT22;2428;48.732;9.148;2023-12-22T08:50:55;6.70;99.90
4828;DHT22;2428;48.732;9.148;2023-12-22T08:53:21;6.80;99.90
4828;DHT22;2428;48.732;9.148;2023-12-22T08:55:46;6.80;99.90
4828;DHT22;2428;48.732;9.148;2023-12-22T08:58:12;6.80;99.90
4828;DHT22;2428;48.732;9.148;2023-12-22T09:00:37;6.70;99.90
4828;DHT22;2428;48.732;9.148;2023-12-22T09:03:03;6.70;99.90
4828;DHT22;2428;48.732;9.148;2023-12-22T09:05:29;6.70;99.90
4828;DHT22;2428;48.732;9.148;2023-12-22T09:07:54;6.70;99.90
4828;DHT22;2428;48.732;9.148;2023-12-22T09:10:20;6.70;99.90
4828;DHT22;2428;48.732;9.148;2023-12-22T09:12:45;6.70;99.90
4828;DHT22;2428;48.732;9.148;2023-12-22T09:15:11;6.70;99.90
4828;DHT22;2428;48.732;9.148;2023-12-22T09:17:37;6.80;99.90
4828;DHT22;2428;48.732;9.148;2023-12-22T09:20:03;6.80;99.90
4828;DHT22;2428;48.732;9.148;2023-12-22T09:22:28;6.90;99.90
4828;DHT22;2428;48.732;9.148;2023-12-22T09:24:54;6.90;99.90
4828;DHT22;2428;48.732;9.148;2023-12-22T09:27:19;7.00;99.90
4828;DHT22;2428;48.732;9.148;2023-12-22T09:29:45;7.00;99.90
4828;DHT22;2428;48.732;9.148;2023-12-22T09:32:11;7.10;99.90
4828;DHT22;2428;48.732;9.148;2023-12-22T09:34:36;7.10;99.90
4828;DHT22;2428;48.732;9.148;2023-12-22T09:37:02;7.10;99.90
4828;DHT22;2428;48.732;9.148;2023-12-22T09:39:27;7.10;99.90
4828;DHT22;2428;48.732;9.148;2023-12-22T09:41:54;7.10;99.90
4828;DHT22;2428;48.732;9.148;2023-12-22T09:44:21;7.20;99.90
4828;DHT22;2428;48.732;9.148;2023-12-22T09:46:50;7.20;99.90
4828;DHT22;2428;48.732;9.148;2023-12-22T09:49:18;7.20;99.90
4828;DHT22;2428;48.732;9.148;2023-12-22T09:51:44;7.20;99.90
4828;DHT22;2428;48.732;9.148;2023-12-22T09:54:10;7.20;99.90
4828;DHT22;2428;48.732;9.148;2023-12-22T09:56:37;7.20;99.90
4828;DHT22;2428;48.732;9.148;2023-12-22T09:59:10;7.20;99.90
4828;DHT22;2428;48.732;9.148;2023-12-22T10:01:38;7.20;99.90
4828;DHT22;2428;48.732;9.148;2023-12-22T10:04:05;7.20;99.90
4828;DHT22;2428;48.732;9.148;2023-12-22T10:06:30;7.20;99.90
4828;DHT22;2428;48.732;9.148;2023-12-22T10:08:56;7.30;99.90
4828;DHT22;2428;48.732;9.148;2023-12-22T10:11:22;7.30;99.90
4828;DHT22;2428;48.732;9.148;2023-12-22T10:13:50;7.30;99.90
4828;DHT22;2428;48.732;9.148;2023-12-22T10:16:18;7.30;99.90
4828;DHT22;2428;48.732;9.148;2023-12-22T10:18:47;7.30;99.90
4828;DHT22;2428;48.732;9.148;2023-12-22T10:21:12;7.30;99.90
4828;DHT22;2428;48.732;9.148;2023-12-22T10:23:38;7.40;99.90
4828;DHT22;2428;48.732;9.148;2023-12-22T10:26:03;7.40;99.90
4828;DHT22;2428;48.732;9.148;2023-12-22T10:28:29;7.40;99.90
4828;DHT22;2428;48.732;9.148;2023-12-22T10:30:56;7.40;99.90
4828;DHT22;2428;48.732;9.148;2023-12-22T10:33:24;7.40;99.90
4828;DHT22;2428;48.732;9.148;2023-12-22T10:35:50;7.40;99.90
4828;DHT22;2428;48.732;9.148;2023-12-22T10:38:19;7.40;99.90
4828;DHT22;2428;48.732;9.148;2023-12-22T10:40:46;7.40;99.90
4828;DHT22;2428;48.732;9.148;2023-12-22T10:43:12;7.40;99.90
4828;DHT22;2428;48.732;9.148;2023-12-22T10:45:40;7.40;99.90
4828;DHT22;2428;48.732;9.148;2023-12-22T10:48:06;7.40;99.90
4828;DHT22;2428;48.732;9.148;2023-12-22T10:50:32;7.40;99.90
4828;DHT22;2428;48.732;9.148;2023-12-22T10:52:58;7.30;99.90
4828;DHT22;2428;48.732;9.148;2023-12-22T10:55:23;7.30;99.90
4828;DHT22;2428;48.732;9.148;2023-12-22T10:57:50;7.40;99.90
4828;DHT22;2428;48.732;9.148;2023-12-22T11:00:16;7.40;99.90
4828;DHT22;2428;48.732;9.148;2023-12-22T11:02:43;7.40;99.90
4828;DHT22;2428;48.732;9.148;2023-12-22T11:05:11;7.30;99.90
4828;DHT22;2428;48.732;9.148;2023-12-22T11:07:37;7.30;99.90
4828;DHT22;2428;48.732;9.148;2023-12-22T11:10:05;7.30;99.90
4828;DHT22;2428;48.732;9.148;2023-12-22T11:12:33;7.30;99.90
4828;DHT22;2428;48.732;9.148;2023-12-22T11:15:00;7.30;99.90
4828;DHT22;2428;48.732;9.148;2023-12-22T11:17:28;7.30;99.90
4828;DHT22;2428;48.732;9.148;2023-12-22T11:19:56;7.20;99.90
4828;DHT22;2428;48.732;9.148;2023-12-22T11:22:22;7.20;99.90
4828;DHT22;2428;48.732;9.148;2023-12-22T11:24:49;7.20;99.90
4828;DHT22;2428;48.732;9.148;2023-12-22T11:27:19;7.10;99.90
4828;DHT22;2428;48.732;9.148;2023-12-22T11:29:49;7.10;99.90
4828;DHT22;2428;48.732;9.148;2023-12-22T11:32:18;7.10;99.90
4828;DHT22;2428;48.732;9.148;2023-12-22T11:34:45;7.00;99.90
4828;DHT22;2428;48.732;9.148;2023-12-22T11:37:15;7.00;99.90
4828;DHT22;2428;48.732;9.148;2023-12-22T11:39:42;7.00;99.90
4828;DHT22;2428;48.732;9.148;2023-12-22T11:42:21;7.00;99.90
4828;DHT22;2428;48.732;9.148;2023-12-22T11:44:48;6.90;99.90
4828;DHT22;2428;48.732;9.148;2023-12-22T11:47:14;6.90;99.90
4828;DHT22;2428;48.732;9.148;2023-12-22T11:49:40;6.80;99.90
4828;DHT22;2428;48.732;9.148;2023-12-22T11:54:50;6.70;99.90
4828;DHT22;2428;48.732;9.148;2023-12-22T12:02:29;6.60;99.90
4828;DHT22;2428;48.732;9.148;2023-12-22T12:04:58;6.60;99.90
4828;DHT22;2428;48.732;9.148;2023-12-22T12:10:13;6.60;99.90
4828;DHT22;2428;48.732;9.148;2023-12-22T12:13:08;6.60;99.90
4828;DHT22;2428;48.732;9.148;2023-12-22T12:15:35;6.60;99.90
4828;DHT22;2428;48.732;9.148;2023-12-22T12:18:03;6.60;99.90
4828;DHT22;2428;48.732;9.148;2023-12-22T12:20:30;6.50;99.90
4828;DHT22;2428;48.732;9.148;2023-12-22T12:22:55;6.50;99.90
4828;DHT22;2428;48.732;9.148;2023-12-22T12:25:29;6.50;99.90
4828;DHT22;2428;48.732;9.148;2023-12-22T12:28:04;6.50;99.90
4828;DHT22;2428;48.732;9.148;2023-12-22T12:30:31;6.50;99.90
4828;DHT22;2428;48.732;9.148;2023-12-22T12:32:59;6.50;99.90
4828;DHT22;2428;48.732;9.148;2023-12-22T12:35:31;6.60;99.90
4828;DHT22;2428;48.732;9.148;2023-12-22T12:37:58;6.60;99.90
4828;DHT22;2428;48.732;9.148;2023-12-22T12:40:24;6.50;99.90
4828;DHT22;2428;48.732;9.148;2023-12-22T12:42:52;6.50;99.90
4828;DHT22;2428;48.732;9.148;2023-12-22T12:45:22;6.50;99.90
4828;DHT22;2428;48.732;9.148;2023-12-22T12:48:04;6.50;99.90
4828;DHT22;2428;48.732;9.148;2023-12-22T12:50:30;6.60;99.90
4828;DHT22;2428;48.732;9.148;2023-12-22T12:52:57;6.60;99.90
4828;DHT22;2428;48.732;9.148;2023-12-22T12:55:24;6.60;99.90
4828;DHT22;2428;48.732;9.148;2023-12-22T12:57:50;6.60;99.90
4828;DHT22;2428;48.732;9.148;2023-12-22T13:00:36;6.60;99.90
4828;DHT22;2428;48.732;9.148;2023-12-22T13:03:03;6.70;99.90
4828;DHT22;2428;48.732;9.148;2023-12-22T13:05:33;6.70;99.90
4828;DHT22;2428;48.732;9.148;2023-12-22T13:08:08;6.70;99.90
4828;DHT22;2428;48.732;9.148;2023-12-22T13:10:34;6.70;99.90
4828;DHT22;2428;48.732;9.148;2023-12-22T13:13:00;6.80;99.90
4828;DHT22;2428;48.732;9.148;2023-12-22T13:15:26;6.80;99.90
4828;DHT22;2428;48.732;9.148;2023-12-22T13:17:52;6.80;99.90
4828;DHT22;2428;48.732;9.148;2023-12-22T13:20:17;6.90;99.90
4828;DHT22;2428;48.732;9.148;2023-12-22T13:22:44;6.90;99.90
4828;DHT22;2428;48.732;9.148;2023-12-22T13:25:10;7.00;99.90
4828;DHT22;2428;48.732;9.148;2023-12-22T13:27:50;7.00;99.90
4828;DHT22;2428;48.732;9.148;2023-12-22T13:30:38;7.10;99.90
4828;DHT22;2428;48.732;9.148;2023-12-22T13:33:06;7.10;99.90
4828;DHT22;2428;48.732;9.148;2023-12-22T13:35:33;7.20;99.90
4828;DHT22;2428;48.732;9.148;2023-12-22T13:38:00;7.30;99.90
4828;DHT22;2428;48.732;9.148;2023-12-22T13:40:26;7.40;99.90
4828;DHT22;2428;48.732;9.148;2023-12-22T13:42:58;7.50;99.90
4828;DHT22;2428;48.732;9.148;2023-12-22T13:45:27;7.60;99.90
4828;DHT22;2428;48.732;9.148;2023-12-22T13:47:53;7.70;99.90
4828;DHT22;2428;48.732;9.148;2023-12-22T13:50:20;7.80;99.90
4828;DHT22;2428;48.732;9.148;2023-12-22T13:52:48;7.80;99.90
4828;DHT22;2428;48.732;9.148;2023-12-22T13:55:17;7.90;99.90
4828;DHT22;2428;48.732;9.148;2023-12-22T13:57:43;7.90;99.90
4828;DHT22;2428;48.732;9.148;2023-12-22T14:02:47;8.00;99.90
4828;DHT22;2428;48.732;9.148;2023-12-22T14:05:17;8.00;99.90
4828;DHT22;2428;48.732;9.148;2023-12-22T14:07:46;8.10;99.90
4828;DHT22;2428;48.732;9.148;2023-12-22T14:10:12;8.00;99.90
4828;DHT22;2428;48.732;9.148;2023-12-22T14:12:38;8.10;99.90
4828;DHT22;2428;48.732;9.148;2023-12-22T14:15:11;8.10;99.90
4828;DHT22;2428;48.732;9.148;2023-12-22T14:17:37;8.10;99.90
4828;DHT22;2428;48.732;9.148;2023-12-22T14:20:03;8.20;99.90
4828;DHT22;2428;48.732;9.148;2023-12-22T14:22:35;8.20;99.90
4828;DHT22;2428;48.732;9.148;2023-12-22T14:25:01;8.20;99.90
4828;DHT22;2428;48.732;9.148;2023-12-22T14:27:26;8.20;99.90
4828;DHT22;2428;48.732;9.148;2023-12-22T14:29:52;8.30;99.90
4828;DHT22;2428;48.732;9.148;2023-12-22T14:32:17;8.20;99.90
4828;DHT22;2428;48.732;9.148;2023-12-22T14:34:45;8.30;99.90
4828;DHT22;2428;48.732;9.148;2023-12-22T14:37:11;8.30;99.90
4828;DHT22;2428;48.732;9.148;2023-12-22T14:39:36;8.30;99.90
4828;DHT22;2428;48.732;9.148;2023-12-22T14:42:02;8.30;99.90
4828;DHT22;2428;48.732;9.148;2023-12-22T14:44:28;8.30;99.90
4828;DHT22;2428;48.732;9.148;2023-12-22T14:46:54;8.40;99.90
4828;DHT22;2428;48.732;9.148;2023-12-22T14:49:20;8.40;99.90
4828;DHT22;2428;48.732;9.148;2023-12-22T14:51:47;8.40;99.90
4828;DHT22;2428;48.732;9.148;2023-12-22T14:54:17;8.50;99.90
4828;DHT22;2428;48.732;9.148;2023-12-22T14:56:42;8.50;99.90
4828;DHT22;2428;48.732;9.148;2023-12-22T14:59:11;8.50;99.90
4828;DHT22;2428;48.732;9.148;2023-12-22T15:01:38;8.60;99.90
4828;DHT22;2428;48.732;9.148;2023-12-22T15:04:04;8.50;99.90
4828;DHT22;2428;48.732;9.148;2023-12-22T15:06:31;8.50;99.90
4828;DHT22;2428;48.732;9.148;2023-12-22T15:08:57;8.50;99.90
4828;DHT22;2428;48.732;9.148;2023-12-22T15:11:25;8.50;99.90
4828;DHT22;2428;48.732;9.148;2023-12-22T15:13:50;8.50;99.90
4828;DHT22;2428;48.732;9.148;2023-12-22T15:16:16;8.50;99.90
4828;DHT22;2428;48.732;9.148;2023-12-22T15:18:41;8.50;99.90
4828;DHT22;2428;48.732;9.148;2023-12-22T15:21:07;8.50;99.90
4828;DHT22;2428;48.732;9.148;2023-12-22T15:23:32;8.50;99.90
4828;DHT22;2428;48.732;9.148;2023-12-22T15:25:59;8.50;99.90
4828;DHT22;2428;48.732;9.148;2023-12-22T15:28:24;8.50;99.90
4828;DHT22;2428;48.732;9.148;2023-12-22T15:30:51;8.50;99.90
4828;DHT22;2428;48.732;9.148;2023-12-22T15:33:17;8.50;99.90
4828;DHT22;2428;48.732;9.148;2023-12-22T15:35:42;8.50;99.90
4828;DHT22;2428;48.732;9.148;2023-12-22T15:38:08;8.50;99.90
4828;DHT22;2428;48.732;9.148;2023-12-22T15:40:35;8.50;99.90
4828;DHT22;2428;48.732;9.148;2023-12-22T15:43:01;8.50;99.90
4828;DHT22;2428;48.732;9.148;2023-12-22T15:45:26;8.60;99.90
4828;DHT22;2428;48.732;9.148;2023-12-22T15:47:52;8.60;99.90
4828;DHT22;2428;48.732;9.148;2023-12-22T15:50:18;8.60;99.90
4828;DHT22;2428;48.732;9.148;2023-12-22T15:52:44;8.60;99.90
4828;DHT22;2428;48.732;9.148;2023-12-22T15:55:10;8.60;99.90
4828;DHT22;2428;48.732;9.148;2023-12-22T15:57:36;8.60;99.90
4828;DHT22;2428;48.732;9.148;2023-12-22T16:00:03;8.60;99.90
4828;DHT22;2428;48.732;9.148;2023-12-22T16:02:29;8.60;99.90
4828;DHT22;2428;48.732;9.148;2023-12-22T16:04:55;8.60;99.90
4828;DHT22;2428;48.732;9.148;2023-12-22T16:07:20;8.60;99.90
4828;DHT22;2428;48.732;9.148;2023-12-22T16:09:49;8.70;99.90
4828;DHT22;2428;48.732;9.148;2023-12-22T16:12:14;8.60;99.90
4828;DHT22;2428;48.732;9.148;2023-12-22T16:14:40;8.70;99.90
4828;DHT22;2428;48.732;9.148;2023-12-22T16:17:05;8.60;99.90
4828;DHT22;2428;48.732;9.148;2023-12-22T16:19:31;8.70;99.90
4828;DHT22;2428;48.732;9.148;2023-12-22T16:21:57;8.70;99.90
4828;DHT22;2428;48.732;9.148;2023-12-22T16:24:23;8.70;99.90
4828;DHT22;2428;48.732;9.148;2023-12-22T16:26:49;8.70;99.90